Time;durP1;ratioP1;P1;durP2;ratioP2;P2;SDS_P1;SDS_P2;PMS_P1;PMS_P2;Temp;Humidity;BMP_temperature;BMP_pressure;BME280_temperature;BME280_humidity;BME280_pressure;Samples;Min_cycle;Max_cycle;Signal;HPM_P1;HPM_P2
2024/04/05 00:01:51;;;;;;;4.43;1.10;;;;;;;12.48;75.25;98531.25;5013335;27;102818;-69
2024/04/05 00:04:17;;;;;;;3.22;0.90;;;;;;;12.67;74.55;98540.50;5015684;27;103914;-69
2024/04/05 00:06:45;;;;;;;4.93;1.38;;;;;;;12.63;75.02;98539.22;5013537;27;103098;-69
2024/04/05 00:09:13;;;;;;;2.20;0.98;;;;;;;12.66;74.89;98544.16;5017098;27;103409;-69
2024/04/05 00:11:39;;;;;;;3.85;1.02;;;;;;;12.62;75.88;98537.56;5011069;27;104089;-69
2024/04/05 00:14:05;;;;;;;2.28;0.93;;;;;;;12.60;75.58;98534.25;5000312;27;103499;-69
2024/04/05 00:16:31;;;;;;;4.28;1.08;;;;;;;12.55;75.77;98528.66;4984142;27;106035;-69
2024/04/05 00:18:57;;;;;;;4.40;1.00;;;;;;;12.57;76.12;98534.63;5016370;27;102898;-69
2024/04/05 00:21:23;;;;;;;1.75;0.90;;;;;;;12.59;75.51;98527.31;4997329;27;103711;-69
2024/04/05 00:23:54;;;;;;;6.32;1.40;;;;;;;12.56;75.87;98531.16;5011105;27;103719;-69
2024/04/05 00:26:20;;;;;;;5.32;1.30;;;;;;;12.60;75.74;98528.94;4998373;27;105354;-69
2024/04/05 00:28:46;;;;;;;5.95;1.33;;;;;;;12.57;75.53;98539.94;4995926;27;102777;-69
2024/04/05 00:31:14;;;;;;;4.47;0.90;;;;;;;12.49;76.03;98554.16;5000923;27;103668;-69
2024/04/05 00:33:40;;;;;;;6.03;1.27;;;;;;;12.47;75.55;98550.03;4992073;27;106168;-69
2024/04/05 00:36:06;;;;;;;4.97;1.15;;;;;;;12.49;75.75;98548.84;5010582;27;103700;-69
2024/04/05 00:38:31;;;;;;;5.97;1.30;;;;;;;12.60;75.59;98543.06;5015723;27;103112;-69
2024/04/05 00:40:57;;;;;;;4.97;1.25;;;;;;;12.68;75.42;98534.19;5013840;27;103728;-69
2024/04/05 00:43:25;;;;;;;7.53;1.73;;;;;;;12.59;75.54;98532.63;5017032;27;103241;-68
2024/04/05 00:45:51;;;;;;;3.85;1.20;;;;;;;12.65;75.64;98526.56;5013284;27;106056;-69
2024/04/05 00:48:22;;;;;;;5.22;1.10;;;;;;;12.70;75.49;98502.91;5015843;27;103207;-69
2024/04/05 00:50:51;;;;;;;4.40;0.93;;;;;;;12.71;75.53;98509.88;4999179;27;103506;-69
2024/04/05 00:53:26;;;;;;;3.80;1.20;;;;;;;12.72;75.42;98510.69;5014806;27;103462;-69
2024/04/05 00:55:53;;;;;;;4.22;1.20;;;;;;;12.67;75.42;98511.25;4996738;27;103327;-69
2024/04/05 00:58:20;;;;;;;4.53;1.25;;;;;;;12.71;75.18;98514.38;4994206;27;102724;-69
2024/04/05 01:00:49;;;;;;;4.70;1.38;;;;;;;12.71;75.23;98509.88;5010777;27;102765;-69
2024/04/05 01:03:15;;;;;;;4.50;1.10;;;;;;;12.72;75.57;98511.53;5013128;27;103329;-69
2024/04/05 01:05:41;;;;;;;5.68;1.35;;;;;;;12.59;75.56;98503.41;4998202;27;105331;-69
2024/04/05 01:08:13;;;;;;;3.13;1.10;;;;;;;12.67;75.53;98502.44;4997638;27;102920;-69
2024/04/05 01:10:43;;;;;;;4.70;1.17;;;;;;;12.68;75.45;98502.28;5013757;27;104957;-69
2024/04/05 01:13:11;;;;;;;3.58;1.20;;;;;;;12.66;75.73;98498.97;5014221;27;105310;-69
2024/04/05 01:15:38;;;;;;;4.57;1.20;;;;;;;12.64;76.15;98501.00;4977374;27;105773;-70
2024/04/05 01:18:10;;;;;;;3.97;1.23;;;;;;;12.53;76.69;98504.94;4992993;27;103193;-69
2024/04/05 01:20:39;;;;;;;3.88;1.23;;;;;;;12.55;75.91;98502.09;4998417;27;103159;-69
2024/04/05 01:23:10;;;;;;;3.40;1.02;;;;;;;12.56;76.15;98506.41;4976562;27;110087;-69
2024/04/05 01:25:36;;;;;;;5.18;1.58;;;;;;;12.50;76.31;98507.16;4996789;27;106712;-69
2024/04/05 01:28:13;;;;;;;5.13;1.30;;;;;;;12.54;76.03;98503.13;5009774;27;103131;-69
2024/04/05 01:30:41;;;;;;;3.20;0.90;;;;;;;12.59;76.07;98514.03;4998662;27;102784;-69
2024/04/05 01:33:07;;;;;;;4.38;1.25;;;;;;;12.57;75.91;98510.72;5010756;27;107834;-69
2024/04/05 01:35:33;;;;;;;3.65;1.13;;;;;;;12.58;76.00;98507.06;5012273;27;103124;-69
2024/04/05 01:38:01;;;;;;;3.47;1.10;;;;;;;12.62;75.54;98503.03;4998198;27;102943;-70
2024/04/05 01:40:29;;;;;;;3.78;1.00;;;;;;;12.60;75.64;98502.38;5030951;27;102756;-69
2024/04/05 01:43:00;;;;;;;7.28;1.63;;;;;;;12.63;75.88;98506.50;4994269;27;103318;-69
2024/04/05 01:45:25;;;;;;;4.45;1.65;;;;;;;12.51;75.97;98498.19;5013084;27;103318;-69
2024/04/05 01:47:51;;;;;;;5.10;1.27;;;;;;;12.60;75.59;98491.75;5008928;27;102822;-69
2024/04/05 01:50:17;;;;;;;3.92;1.25;;;;;;;12.53;75.50;98502.28;4981253;27;103052;-69
2024/04/05 01:52:47;;;;;;;5.88;1.20;;;;;;;12.58;75.53;98499.09;5010955;27;103922;-68
2024/04/05 01:55:15;;;;;;;7.30;1.48;;;;;;;12.44;75.85;98490.97;5009923;27;105687;-69
2024/04/05 01:57:41;;;;;;;4.53;1.60;;;;;;;12.58;75.42;98493.78;5012503;27;102675;-69
2024/04/05 02:00:08;;;;;;;4.93;1.25;;;;;;;12.59;75.00;98490.13;4995789;27;102733;-68
2024/04/05 02:02:47;;;;;;;4.20;1.10;;;;;;;12.62;75.35;98491.59;5014597;27;103437;-69
2024/04/05 02:05:13;;;;;;;2.40;0.93;;;;;;;12.55;75.25;98486.16;4998649;27;103078;-69
2024/04/05 02:07:39;;;;;;;4.00;1.15;;;;;;;12.60;75.15;98475.81;5011276;27;102720;-68
2024/04/05 02:10:05;;;;;;;3.55;1.40;;;;;;;12.60;74.97;98470.50;5010699;27;104032;-69
2024/04/05 02:12:31;;;;;;;4.30;1.30;;;;;;;12.55;75.35;98472.88;5013588;27;103711;-70
2024/04/05 02:15:00;;;;;;;3.92;0.90;;;;;;;12.60;75.13;98470.50;5010974;27;103743;-68
2024/04/05 02:17:28;;;;;;;3.78;1.10;;;;;;;12.60;74.74;98470.50;5001670;27;102641;-69
2024/04/05 02:19:54;;;;;;;5.28;1.17;;;;;;;12.62;75.14;98473.81;4999636;27;102783;-69
2024/04/05 02:22:22;;;;;;;5.10;1.10;;;;;;;12.64;75.10;98477.06;5016299;27;103485;-68
2024/04/05 02:24:51;;;;;;;2.97;1.00;;;;;;;12.64;74.95;98476.25;5015415;27;103343;-68
2024/04/05 02:27:17;;;;;;;5.13;1.25;;;;;;;12.55;75.49;98476.38;5001419;27;102841;-68
2024/04/05 02:29:42;;;;;;;6.22;1.48;;;;;;;12.57;75.42;98481.50;5015323;27;102854;-68
2024/04/05 02:32:08;;;;;;;4.93;1.38;;;;;;;12.26;76.41;98486.03;4995737;27;106130;-68
2024/04/05 02:34:34;;;;;;;4.20;1.10;;;;;;;12.44;76.64;98490.13;5000616;27;104470;-68
2024/04/05 02:37:00;;;;;;;4.38;1.20;;;;;;;12.47;76.18;98481.81;5013245;27;102769;-68
2024/04/05 02:39:28;;;;;;;4.60;1.27;;;;;;;12.52;75.93;98479.38;5016331;27;102775;-67
2024/04/05 02:41:54;;;;;;;3.67;1.35;;;;;;;12.48;76.34;98483.44;5015863;27;105105;-68
2024/04/05 02:44:25;;;;;;;2.35;1.00;;;;;;;12.52;75.92;98484.69;5019972;27;103281;-67
2024/04/05 02:46:52;;;;;;;5.63;1.80;;;;;;;12.47;76.22;98480.97;4999359;27;102871;-68
2024/04/05 02:49:18;;;;;;;4.10;1.48;;;;;;;12.43;76.55;98491.13;5015814;27;102841;-68
2024/04/05 02:51:44;;;;;;;5.60;1.90;;;;;;;12.26;76.81;98490.50;5015527;27;103286;-68
2024/04/05 02:54:09;;;;;;;3.40;1.10;;;;;;;12.43;76.37;98491.97;5016121;27;103842;-68
2024/04/05 02:56:35;;;;;;;4.18;1.25;;;;;;;12.40;76.43;98487.00;5019631;27;103072;-69
2024/04/05 02:59:01;;;;;;;3.72;1.30;;;;;;;12.48;76.23;98490.59;5017113;27;102869;-68
2024/04/05 03:01:27;;;;;;;5.90;1.98;;;;;;;12.40;76.47;98492.31;4979280;27;104055;-68
2024/04/05 03:03:53;;;;;;;5.38;1.50;;;;;;;12.37;76.55;98492.72;5017448;27;104524;-68
2024/04/05 03:06:20;;;;;;;5.50;1.80;;;;;;;12.36;76.93;98499.03;4999901;27;104229;-68
2024/04/05 03:08:46;;;;;;;8.30;2.05;;;;;;;12.35;76.97;98500.03;4999484;27;102906;-69
2024/04/05 03:11:14;;;;;;;10.02;2.33;;;;;;;12.03;78.22;98498.59;5016304;27;103538;-69
2024/04/05 03:13:41;;;;;;;7.60;2.30;;;;;;;11.89;78.88;98500.19;5000139;27;104422;-68
2024/04/05 03:16:07;;;;;;;6.72;2.13;;;;;;;11.94;78.63;98503.09;5023908;27;102664;-70
2024/04/05 03:18:35;;;;;;;7.35;2.05;;;;;;;12.03;78.29;98507.34;5008815;27;102714;-70
2024/04/05 03:21:01;;;;;;;5.88;2.13;;;;;;;12.14;78.05;98508.72;5025093;27;103279;-70
2024/04/05 03:23:27;;;;;;;4.43;1.83;;;;;;;12.13;77.84;98504.44;5023343;27;103162;-70
2024/04/05 03:25:54;;;;;;;6.80;2.20;;;;;;;12.11;77.76;98504.59;4998424;27;102912;-70
2024/04/05 03:28:19;;;;;;;6.95;2.40;;;;;;;11.90;78.25;98496.53;5026921;27;102786;-70
2024/04/05 03:30:45;;;;;;;7.30;2.40;;;;;;;11.60;79.78;98507.09;5025945;27;103993;-69
2024/04/05 03:33:11;;;;;;;9.02;2.50;;;;;;;11.59;80.15;98505.44;4983930;27;106028;-70
2024/04/05 03:35:37;;;;;;;7.82;2.88;;;;;;;11.71;79.53;98501.34;5005146;27;102728;-70
2024/04/05 03:38:04;;;;;;;9.50;2.40;;;;;;;11.65;79.49;98504.72;5003771;27;102821;-70
2024/04/05 03:40:30;;;;;;;6.35;2.20;;;;;;;11.74;79.52;98506.28;5021701;27;104489;-70
2024/04/05 03:42:55;;;;;;;9.07;2.40;;;;;;;11.72;79.43;98499.50;5020613;27;103351;-70
2024/04/05 03:45:21;;;;;;;4.22;2.10;;;;;;;11.80;79.21;98495.97;5022866;27;102699;-70
2024/04/05 03:47:49;;;;;;;5.90;1.85;;;;;;;11.85;78.62;98493.59;5004925;27;103724;-70
2024/04/05 03:50:15;;;;;;;9.32;2.78;;;;;;;11.76;79.31;98491.03;5004386;27;103576;-70
2024/04/05 03:52:41;;;;;;;5.60;2.20;;;;;;;11.83;78.75;98487.63;5016205;27;103254;-69
2024/04/05 03:55:06;;;;;;;7.75;2.67;;;;;;;11.84;78.76;98483.97;5024290;27;103101;-70
2024/04/05 03:57:32;;;;;;;7.97;2.30;;;;;;;11.86;78.23;98484.63;5002584;27;103216;-70
2024/04/05 03:59:59;;;;;;;6.40;2.50;;;;;;;11.85;78.67;98482.97;5020719;27;103859;-70
2024/04/05 04:02:27;;;;;;;6.43;2.63;;;;;;;11.82;78.18;98486.81;5019451;27;103217;-70
2024/04/05 04:04:53;;;;;;;5.53;2.28;;;;;;;11.80;78.32;98493.31;5021004;27;102800;-70
2024/04/05 04:07:19;;;;;;;5.47;2.03;;;;;;;11.81;78.31;98498.44;5004557;27;102749;-70
2024/04/05 04:09:46;;;;;;;7.00;2.75;;;;;;;11.80;78.32;98504.72;5019761;27;103346;-70
2024/04/05 04:12:13;;;;;;;8.32;3.10;;;;;;;11.76;78.33;98506.09;5007521;27;103167;-69
2024/04/05 04:14:43;;;;;;;6.45;2.67;;;;;;;11.82;78.51;98505.38;5020466;27;103076;-70
2024/04/05 04:17:09;;;;;;;9.15;2.70;;;;;;;11.79;78.57;98508.41;5022428;27;102791;-70
2024/04/05 04:19:35;;;;;;;10.07;2.65;;;;;;;11.81;78.41;98505.56;5000796;27;105255;-70
2024/04/05 04:22:03;;;;;;;5.80;2.72;;;;;;;11.78;78.26;98504.91;5019575;27;103272;-70
2024/04/05 04:24:31;;;;;;;7.68;2.53;;;;;;;11.72;78.44;98500.31;5023932;27;102740;-70
2024/04/05 04:26:57;;;;;;;9.50;2.88;;;;;;;11.72;78.62;98502.16;5003091;27;102764;-70
2024/04/05 04:29:25;;;;;;;9.23;2.78;;;;;;;11.68;78.17;98498.22;5021516;27;103284;-70
2024/04/05 04:31:51;;;;;;;7.13;2.72;;;;;;;11.66;78.32;98495.75;5003798;27;105713;-69
2024/04/05 04:34:20;;;;;;;8.60;2.95;;;;;;;11.49;79.18;98497.72;5020919;27;103657;-70
2024/04/05 04:36:46;;;;;;;9.25;3.03;;;;;;;11.63;78.79;98501.41;4996342;27;102732;-70
2024/04/05 04:39:11;;;;;;;6.07;2.38;;;;;;;11.63;78.50;98495.28;4998251;27;103879;-70
2024/04/05 04:41:39;;;;;;;12.52;3.58;;;;;;;11.34;79.64;98496.84;4999335;27;103231;-69
2024/04/05 04:44:08;;;;;;;11.02;3.40;;;;;;;11.34;80.09;98489.72;4999252;27;102793;-70
2024/04/05 04:46:34;;;;;;;9.50;3.08;;;;;;;11.25;80.63;98499.59;5006395;27;102759;-70
2024/04/05 04:49:00;;;;;;;9.80;3.22;;;;;;;11.10;81.30;98491.56;5023523;27;103273;-70
2024/04/05 04:51:26;;;;;;;8.70;3.00;;;;;;;10.99;81.91;98494.63;5025483;27;103205;-70
2024/04/05 04:53:54;;;;;;;9.88;3.35;;;;;;;10.98;82.03;98495.63;5006921;27;102771;-70
2024/04/05 04:56:19;;;;;;;6.85;2.63;;;;;;;11.05;81.56;98493.91;5005695;27;103173;-70
2024/04/05 04:58:47;;;;;;;6.55;2.60;;;;;;;11.17;81.29;98507.56;5006303;27;105947;-70
2024/04/05 05:01:12;;;;;;;8.02;3.25;;;;;;;11.01;81.69;98505.06;5022100;27;103333;-70
2024/04/05 05:03:38;;;;;;;6.30;2.60;;;;;;;10.97;81.82;98503.75;5007491;27;102990;-70
2024/04/05 05:06:06;;;;;;;7.05;2.55;;;;;;;11.06;81.58;98510.66;5024613;27;102712;-70
2024/04/05 05:08:37;;;;;;;4.35;2.10;;;;;;;11.13;81.11;98505.47;5006955;27;106110;-70
2024/04/05 05:11:05;;;;;;;6.88;2.70;;;;;;;10.92;81.59;98493.66;5003543;27;110716;-70
2024/04/05 05:13:32;;;;;;;6.78;2.20;;;;;;;10.95;81.52;98503.91;5006632;27;102646;-70
2024/04/05 05:15:57;;;;;;;9.00;2.40;;;;;;;11.04;81.41;98502.84;5024959;27;102850;-70
2024/04/05 05:18:25;;;;;;;7.43;2.28;;;;;;;11.15;80.57;98504.28;5004615;27;106629;-69
2024/04/05 05:20:54;;;;;;;6.07;2.33;;;;;;;11.24;80.60;98503.22;5014125;27;103085;-69
2024/04/05 05:23:23;;;;;;;7.60;2.03;;;;;;;11.25;80.14;98509.34;4998524;27;102724;-69
2024/04/05 05:25:49;;;;;;;7.53;1.90;;;;;;;11.17;80.50;98510.22;5000022;27;102705;-69
2024/04/05 05:28:14;;;;;;;4.93;2.63;;;;;;;11.17;80.75;98512.06;4997892;27;106588;-69
2024/04/05 05:30:41;;;;;;;12.02;2.80;;;;;;;11.24;80.15;98502.38;5005315;27;104485;-70
2024/04/05 05:33:11;;;;;;;7.70;2.33;;;;;;;11.28;79.86;98504.53;4987160;27;102714;-70
2024/04/05 05:35:37;;;;;;;7.93;2.63;;;;;;;11.08;80.14;98503.34;5022303;27;102579;-69
2024/04/05 05:38:06;;;;;;;9.50;2.30;;;;;;;11.06;80.80;98506.16;4997217;27;103223;-70
2024/04/05 05:40:31;;;;;;;4.47;2.10;;;;;;;11.08;80.85;98506.81;5014123;27;103746;-70
2024/04/05 05:42:57;;;;;;;7.50;2.45;;;;;;;11.05;80.41;98504.50;4982683;27;102827;-69
2024/04/05 05:45:23;;;;;;;5.75;2.15;;;;;;;10.99;80.76;98493.78;5013695;27;102907;-69
2024/04/05 05:47:53;;;;;;;4.82;2.00;;;;;;;11.15;80.68;98492.84;4985499;27;103886;-69
2024/04/05 05:50:21;;;;;;;11.70;2.80;;;;;;;11.14;80.28;98492.03;5017075;27;103424;-69
2024/04/05 05:52:49;;;;;;;5.85;2.15;;;;;;;11.27;80.29;98480.84;4998724;27;103041;-69
2024/04/05 05:55:22;;;;;;;8.23;3.17;;;;;;;11.17;79.98;98485.56;5017823;27;102866;-69
2024/04/05 05:57:48;;;;;;;8.45;3.63;;;;;;;11.32;80.19;98486.44;5001987;27;103204;-69
2024/04/05 06:00:14;;;;;;;7.00;3.10;;;;;;;11.49;79.84;98495.09;5005248;27;105722;-71
2024/04/05 06:02:40;;;;;;;5.95;2.65;;;;;;;11.58;79.64;98485.19;5025186;27;103691;-70
2024/04/05 06:05:11;;;;;;;7.43;2.53;;;;;;;11.71;79.08;98487.25;4987253;27;103103;-70
2024/04/05 06:07:39;;;;;;;7.28;2.50;;;;;;;11.73;79.12;98486.06;5006021;27;106582;-71
2024/04/05 06:10:05;;;;;;;14.60;2.70;;;;;;;11.93;78.66;98483.72;5007072;27;110059;-71
2024/04/05 06:12:35;;;;;;;6.93;2.53;;;;;;;12.02;78.72;98494.28;5008190;27;102738;-71
2024/04/05 06:15:04;;;;;;;8.55;2.67;;;;;;;12.14;78.04;98502.59;5023728;27;102814;-70
2024/04/05 06:17:35;;;;;;;7.28;2.35;;;;;;;12.26;77.48;98501.13;5025194;27;105150;-70
2024/04/05 06:20:09;;;;;;;5.18;2.03;;;;;;;12.34;77.18;98503.72;5020390;27;106457;-71
2024/04/05 06:22:40;;;;;;;7.82;2.03;;;;;;;12.42;76.58;98502.78;5006814;27;103424;-71
2024/04/05 06:25:06;;;;;;;6.97;1.70;;;;;;;12.53;76.19;98501.50;5022068;27;102829;-71
2024/04/05 06:27:37;;;;;;;5.00;1.70;;;;;;;12.66;75.95;98506.94;5024384;27;103429;-70
2024/04/05 06:30:04;;;;;;;8.30;2.08;;;;;;;12.80;75.40;98501.78;5023822;27;103087;-71
2024/04/05 06:32:30;;;;;;;4.38;1.67;;;;;;;12.95;74.98;98499.91;5021552;27;102818;-71
2024/04/05 06:34:56;;;;;;;4.63;1.80;;;;;;;13.08;74.63;98504.56;5021654;27;102787;-70
2024/04/05 06:37:25;;;;;;;7.38;1.63;;;;;;;13.18;74.23;98504.22;5019025;27;103297;-70
2024/04/05 06:39:56;;;;;;;6.78;1.95;;;;;;;13.22;73.99;98497.53;5020404;27;103202;-70
2024/04/05 06:42:23;;;;;;;6.95;1.85;;;;;;;13.31;74.08;98500.88;5022466;27;102746;-70
2024/04/05 06:44:50;;;;;;;4.78;1.63;;;;;;;13.63;73.10;98499.56;5019873;27;103194;-70
2024/04/05 06:47:16;;;;;;;7.10;1.70;;;;;;;13.62;73.46;98489.09;5004781;27;103272;-65
2024/04/05 06:49:44;;;;;;;6.50;1.90;;;;;;;13.54;72.54;98495.38;5001394;27;103301;-69
2024/04/05 06:52:13;;;;;;;5.57;1.80;;;;;;;13.84;71.71;98493.34;5016811;27;103152;-69
2024/04/05 06:54:43;;;;;;;10.38;1.90;;;;;;;13.98;71.00;98499.59;4996545;27;102953;-69
2024/04/05 06:57:10;;;;;;;7.53;2.08;;;;;;;13.91;70.00;98486.25;5013505;27;108023;-70
2024/04/05 06:59:38;;;;;;;8.82;2.08;;;;;;;14.15;70.89;98491.28;5014448;27;103122;-70
2024/04/05 07:02:04;;;;;;;7.25;2.08;;;;;;;14.13;70.27;98490.69;5014997;27;103375;-69
2024/04/05 07:04:31;;;;;;;7.65;2.13;;;;;;;14.17;70.38;98489.25;5019265;27;102674;-70
2024/04/05 07:06:59;;;;;;;7.05;2.00;;;;;;;14.33;70.19;98485.44;5014004;27;103460;-70
2024/04/05 07:09:27;;;;;;;6.32;1.70;;;;;;;14.48;69.62;98482.66;5001057;27;105936;-67
2024/04/05 07:11:53;;;;;;;9.20;2.10;;;;;;;14.67;68.94;98481.94;5013340;27;102811;-66
2024/04/05 07:14:19;;;;;;;12.88;2.30;;;;;;;14.70;67.92;98481.53;5017092;27;103246;-67
2024/04/05 07:16:48;;;;;;;12.15;1.85;;;;;;;14.62;68.82;98484.34;5016642;27;103859;-67
2024/04/05 07:19:16;;;;;;;7.68;2.00;;;;;;;14.72;68.09;98479.47;5002154;27;105836;-67
2024/04/05 07:21:45;;;;;;;6.70;1.80;;;;;;;14.87;68.03;98483.84;5016949;27;102742;-66
2024/04/05 07:24:14;;;;;;;7.00;1.90;;;;;;;14.98;67.72;98488.56;5001117;27;102732;-67
2024/04/05 07:26:43;;;;;;;10.73;2.03;;;;;;;14.95;67.66;98494.31;4998399;27;104774;-67
2024/04/05 07:29:09;;;;;;;6.60;2.10;;;;;;;15.14;65.94;98489.22;5015696;27;103457;-67
2024/04/05 07:31:38;;;;;;;6.72;2.08;;;;;;;15.36;65.88;98480.00;5012627;27;105088;-67
2024/04/05 07:34:07;;;;;;;8.68;2.20;;;;;;;15.43;65.63;98488.00;4996873;27;102921;-68
2024/04/05 07:36:33;;;;;;;7.32;1.98;;;;;;;15.66;65.63;98478.78;5012040;27;103338;-68
2024/04/05 07:39:00;;;;;;;5.38;1.75;;;;;;;15.94;65.42;98478.56;4983326;27;104119;-68
2024/04/05 07:41:25;;;;;;;7.50;1.73;;;;;;;15.75;64.68;98473.03;5015847;27;102946;-68
2024/04/05 07:43:51;;;;;;;6.85;1.70;;;;;;;15.78;65.85;98468.31;4999635;27;102708;-67
2024/04/05 07:46:20;;;;;;;5.15;1.77;;;;;;;15.66;65.15;98466.25;5014851;27;103331;-68
2024/04/05 07:48:48;;;;;;;9.48;2.10;;;;;;;16.06;64.68;98468.91;5016799;27;103270;-68
2024/04/05 07:51:14;;;;;;;7.85;2.10;;;;;;;16.11;64.80;98475.47;5000183;27;104857;-67
2024/04/05 07:53:41;;;;;;;5.88;1.90;;;;;;;16.01;63.88;98471.38;5015287;27;102830;-67
2024/04/05 07:56:07;;;;;;;11.70;2.30;;;;;;;15.96;63.43;98484.53;5011839;27;103223;-66
2024/04/05 07:58:35;;;;;;;10.55;2.33;;;;;;;16.22;63.64;98472.97;5014236;27;103178;-68
2024/04/05 08:01:05;;;;;;;10.00;2.10;;;;;;;16.31;63.23;98480.75;4997726;27;102760;-62
2024/04/05 08:03:31;;;;;;;13.38;2.25;;;;;;;16.27;63.40;98477.69;5014826;27;102758;-70
2024/04/05 08:06:03;;;;;;;5.68;1.83;;;;;;;16.94;62.10;98474.75;5011892;27;103830;-71
2024/04/05 08:08:29;;;;;;;7.07;2.17;;;;;;;17.50;60.58;98469.59;5015510;27;103186;-68
2024/04/05 08:11:01;;;;;;;5.63;1.67;;;;;;;17.76;59.03;98478.47;5009834;27;103976;-69
2024/04/05 08:13:30;;;;;;;5.03;1.75;;;;;;;17.37;59.71;98466.00;4998358;27;103116;-69
2024/04/05 08:16:01;;;;;;;6.95;1.88;;;;;;;18.34;58.63;98462.00;4999979;27;103231;-63
2024/04/05 08:18:27;;;;;;;6.20;1.80;;;;;;;18.66;56.50;98463.69;5015655;27;105284;-65
2024/04/05 08:20:53;;;;;;;7.57;1.48;;;;;;;18.92;56.92;98453.66;4979312;27;102999;-69
2024/04/05 08:23:19;;;;;;;4.53;1.50;;;;;;;19.19;55.25;98454.91;4997382;27;102857;-70
2024/04/05 08:25:44;;;;;;;9.90;2.20;;;;;;;19.23;54.81;98449.88;5013816;27;103195;-64
2024/04/05 08:28:12;;;;;;;7.10;1.80;;;;;;;19.06;54.11;98463.13;4998353;27;103194;-64
2024/04/05 08:30:40;;;;;;;7.45;1.67;;;;;;;19.16;54.32;98459.91;5016370;27;102734;-64
2024/04/05 08:33:09;;;;;;;10.35;2.15;;;;;;;19.53;53.47;98454.34;4982524;27;102896;-64
2024/04/05 08:35:36;;;;;;;7.47;1.95;;;;;;;19.76;53.80;98453.56;5001354;27;105608;-63
2024/04/05 08:38:02;;;;;;;12.77;2.08;;;;;;;20.32;52.59;98466.59;4998382;27;103686;-63
2024/04/05 08:40:28;;;;;;;6.75;1.95;;;;;;;20.33;52.68;98461.00;5013560;27;102718;-64
2024/04/05 08:42:59;;;;;;;11.07;1.70;;;;;;;20.74;50.89;98460.19;5016477;27;102767;-62
2024/04/05 08:45:30;;;;;;;5.35;1.63;;;;;;;20.95;51.63;98456.84;5026995;27;103319;-66
2024/04/05 08:48:01;;;;;;;6.75;1.40;;;;;;;20.62;49.93;98455.66;5014205;27;103462;-62
2024/04/05 08:50:28;;;;;;;7.00;1.40;;;;;;;20.90;50.16;98448.66;4994871;27;102847;-61
2024/04/05 08:52:58;;;;;;;7.80;1.45;;;;;;;21.07;49.91;98447.88;4998124;27;103211;-63
2024/04/05 08:55:25;;;;;;;6.18;1.63;;;;;;;20.90;49.54;98447.84;4998243;27;103471;-69
2024/04/05 08:57:54;;;;;;;7.43;1.40;;;;;;;21.27;49.48;98445.50;5008295;27;103288;-68
2024/04/05 09:00:23;;;;;;;6.20;1.20;;;;;;;21.37;47.38;98432.22;4996971;27;103958;-67
2024/04/05 09:02:52;;;;;;;3.22;1.02;;;;;;;22.00;47.99;98437.47;4997699;27;103074;-67
2024/04/05 09:05:19;;;;;;;5.80;1.50;;;;;;;21.68;46.33;98439.97;4997587;27;106930;-68
2024/04/05 09:07:48;;;;;;;3.90;1.15;;;;;;;21.94;47.30;98449.25;4981649;27;105087;-65
2024/04/05 09:10:19;;;;;;;3.60;1.23;;;;;;;21.37;46.03;98443.00;5013825;27;102768;-66
2024/04/05 09:12:52;;;;;;;4.07;1.30;;;;;;;21.89;46.46;98427.63;5013161;27;106287;-65
2024/04/05 09:15:22;;;;;;;3.88;1.30;;;;;;;22.12;45.23;98437.34;5016672;27;104248;-63
2024/04/05 09:17:51;;;;;;;6.40;1.58;;;;;;;22.54;46.40;98427.91;5013913;27;103246;-62
2024/04/05 09:20:24;;;;;;;6.57;1.60;;;;;;;22.35;44.78;98422.00;5013763;27;103101;-62
2024/04/05 09:23:01;;;;;;;7.18;2.13;;;;;;;22.35;44.60;98425.53;5000270;27;102855;-62
2024/04/05 09:25:27;;;;;;;3.17;1.10;;;;;;;21.82;45.56;98429.69;4999818;27;104097;-61
2024/04/05 09:28:16;;;;;;;4.90;1.42;;;;;;;22.29;43.48;98421.13;5007224;27;103367;-61
2024/04/05 09:30:43;;;;;;;6.63;1.20;;;;;;;22.55;43.67;98426.84;5014662;27;102801;-60
2024/04/05 09:33:18;;;;;;;4.30;1.20;;;;;;;23.15;42.60;98422.31;5017704;27;102924;-61
2024/04/05 09:35:45;;;;;;;4.07;1.13;;;;;;;23.23;41.83;98418.34;5018302;27;103539;-61
2024/04/05 09:38:13;;;;;;;4.60;1.10;;;;;;;22.98;41.31;98417.00;5015380;27;103480;-60
2024/04/05 09:40:44;;;;;;;2.83;1.05;;;;;;;23.31;40.58;98415.16;5003650;27;103524;-64
2024/04/05 09:43:11;;;;;;;4.95;0.90;;;;;;;23.68;41.39;98408.09;5019820;27;103882;-60
2024/04/05 09:45:42;;;;;;;4.18;0.93;;;;;;;23.49;40.27;98410.44;4999363;27;104645;-61
2024/04/05 09:48:10;;;;;;;4.20;1.27;;;;;;;23.24;40.49;98408.34;4995387;27;108173;-61
2024/04/05 09:50:39;;;;;;;5.88;1.50;;;;;;;23.51;40.92;98406.41;5020236;27;103034;-60
2024/04/05 09:53:08;;;;;;;2.55;1.10;;;;;;;23.16;41.20;98412.31;5017664;27;102903;-62
2024/04/05 09:55:42;;;;;;;3.45;1.00;;;;;;;23.25;41.22;98410.78;5014372;27;103217;-62
2024/04/05 09:58:11;;;;;;;;;;;;;;;23.32;40.26;98397.88;5018547;27;108961;-62
2024/04/05 10:00:42;;;;;;;3.53;1.10;;;;;;;23.84;40.53;98400.88;5009905;27;102814;-62
2024/04/05 10:03:08;;;;;;;3.05;0.90;;;;;;;23.49;39.81;98395.03;5015507;27;103147;-61
2024/04/05 10:05:34;;;;;;;4.00;1.10;;;;;;;23.21;40.66;98398.84;4999887;27;105759;-62
2024/04/05 10:08:15;;;;;;;4.07;1.10;;;;;;;23.35;40.37;98393.84;5013981;27;103808;-63
2024/04/05 10:10:51;;;;;;;246.20;46.85;;;;;;;23.13;40.59;98385.81;5001208;27;102993;-65
2024/04/05 10:13:24;;;;;;;46.25;13.75;;;;;;;23.29;40.84;98376.78;4967714;27;103657;-63
2024/04/05 10:15:59;;;;;;;4.93;1.10;;;;;;;23.38;39.09;98376.28;4996723;27;103336;-63
2024/04/05 10:18:26;;;;;;;;;;;;;;;23.57;38.52;98372.09;5016393;27;103358;-64
2024/04/05 10:21:08;;;;;;;5.57;1.50;;;;;;;23.81;38.06;98363.56;5011020;27;102945;-65
2024/04/05 10:23:39;;;;;;;5.70;1.58;;;;;;;24.06;37.57;98359.38;5016232;27;102930;-66
2024/04/05 10:26:10;;;;;;;3.55;1.00;;;;;;;24.08;37.67;98354.50;5011707;27;108069;-65
2024/04/05 10:28:38;;;;;;;5.63;1.90;;;;;;;23.94;36.97;98346.88;4998716;27;103206;-65
2024/04/05 10:31:07;;;;;;;2.25;0.98;;;;;;;23.58;37.09;98352.09;4999912;27;102696;-66
2024/04/05 10:33:33;;;;;;;2.78;0.88;;;;;;;23.54;37.33;98342.88;5015030;27;104543;-68
2024/04/05 10:35:59;;;;;;;3.25;0.90;;;;;;;23.26;36.38;98334.06;5013202;27;103503;-69
2024/04/05 10:38:27;;;;;;;2.60;0.88;;;;;;;23.74;36.17;98335.94;4995729;27;103425;-69
2024/04/05 10:41:00;;;;;;;4.75;1.30;;;;;;;23.81;36.06;98331.13;5012276;27;102833;-68
2024/04/05 10:43:27;;;;;;;3.90;0.95;;;;;;;23.12;34.83;98319.34;5017549;27;102928;-68
2024/04/05 10:46:06;;;;;;;3.95;0.90;;;;;;;23.05;34.79;98313.38;4995504;27;104385;-68
2024/04/05 10:48:33;;;;;;;6.65;1.08;;;;;;;22.76;36.28;98316.38;5013513;27;103571;-68
2024/04/05 10:51:07;;;;;;;5.15;1.20;;;;;;;23.48;36.03;98322.31;5012999;27;102761;-68
2024/04/05 10:53:33;;;;;;;4.55;0.88;;;;;;;23.24;36.38;98317.31;5013247;27;103605;-70
2024/04/05 10:56:01;;;;;;;1.80;1.00;;;;;;;23.11;35.50;98307.75;5012926;27;105350;-67
2024/04/05 10:58:30;;;;;;;3.00;0.88;;;;;;;23.09;34.83;98306.38;4993230;27;103784;-68
2024/04/05 11:00:58;;;;;;;1.80;0.70;;;;;;;22.96;35.38;98305.72;4994995;27;102881;-68
2024/04/05 11:03:27;;;;;;;3.65;1.17;;;;;;;22.83;34.80;98307.00;4989270;27;103106;-68
2024/04/05 11:06:02;;;;;;;17.48;6.25;;;;;;;22.94;34.30;98310.59;5001169;27;103355;-68
2024/04/05 11:08:32;;;;;;;7.07;5.15;;;;;;;23.10;35.35;98316.91;5020291;27;104419;-70
2024/04/05 11:10:58;;;;;;;4.00;0.90;;;;;;;23.09;35.09;98309.88;5012276;27;102847;-68
2024/04/05 11:13:26;;;;;;;2.58;0.82;;;;;;;23.38;34.96;98311.44;5010954;27;102979;-69
2024/04/05 11:16:05;;;;;;;2.50;0.82;;;;;;;23.30;33.94;98313.53;4997391;27;104564;-68
2024/04/05 11:18:37;;;;;;;2.70;0.82;;;;;;;23.57;34.93;98311.81;4987257;27;103237;-68
2024/04/05 11:21:04;;;;;;;2.83;1.08;;;;;;;23.64;34.78;98315.88;5015326;27;103176;-69
2024/04/05 11:23:33;;;;;;;3.10;0.73;;;;;;;23.38;34.45;98312.25;5015118;27;103993;-69
2024/04/05 11:25:59;;;;;;;3.03;0.90;;;;;;;23.27;35.41;98311.38;4985380;27;106032;-68
2024/04/05 11:28:27;;;;;;;4.55;0.77;;;;;;;23.12;34.64;98313.94;4984277;27;103339;-68